Time;durP1;ratioP1;P1;durP2;ratioP2;P2;SDS_P1;SDS_P2;PMS_P1;PMS_P2;Temp;Humidity;BMP_temperature;BMP_pressure;BME280_temperature;BME280_humidity;BME280_pressure;Samples;Min_cycle;Max_cycle;Signal;HPM_P1;HPM_P2
2023/08/01 00:00:57;;;;;;;9.05;7.25;;;;;;;18.40;100.00;99823.56;5284236;28;20105;-73
2023/08/01 00:03:28;;;;;;;6.97;6.28;;;;;;;18.35;100.00;99801.34;5278454;28;20104;-73
2023/08/01 00:05:59;;;;;;;9.52;6.35;;;;;;;18.37;100.00;99816.03;5284183;28;20469;-73
2023/08/01 00:08:31;;;;;;;7.53;6.70;;;;;;;18.35;100.00;99801.34;5286893;28;20067;-73
2023/08/01 00:11:02;;;;;;;6.73;6.00;;;;;;;18.36;100.00;99805.59;5286598;28;20029;-72
2023/08/01 00:13:33;;;;;;;7.00;6.30;;;;;;;18.32;100.00;99801.75;5281007;28;20440;-72
2023/08/01 00:16:05;;;;;;;7.47;6.07;;;;;;;18.27;100.00;99798.91;5288701;28;20497;-72
2023/08/01 00:18:36;;;;;;;10.73;5.77;;;;;;;18.21;100.00;99796.03;5288766;28;20051;-72
2023/08/01 00:21:10;;;;;;;7.80;5.77;;;;;;;18.23;100.00;99809.91;5283560;28;20107;-72
2023/08/01 00:23:41;;;;;;;8.18;5.95;;;;;;;18.11;100.00;99800.16;5284616;28;20103;-72
2023/08/01 00:26:12;;;;;;;7.20;5.70;;;;;;;18.15;100.00;99798.72;5286338;28;20016;-72
2023/08/01 00:28:43;;;;;;;7.93;5.53;;;;;;;18.14;100.00;99803.19;5287465;28;20668;-72
2023/08/01 00:31:15;;;;;;;6.70;5.60;;;;;;;18.10;100.00;99795.84;5283087;28;20025;-72
2023/08/01 00:33:46;;;;;;;9.05;6.28;;;;;;;18.15;100.00;99796.06;5285636;28;20085;-72
2023/08/01 00:36:17;;;;;;;6.68;5.57;;;;;;;18.12;100.00;99788.50;5288909;28;20033;-72
2023/08/01 00:38:48;;;;;;;7.88;5.78;;;;;;;18.12;100.00;99788.50;5287499;28;20078;-72
2023/08/01 00:41:20;;;;;;;7.57;6.50;;;;;;;18.08;100.00;99785.47;5286898;28;20497;-71
2023/08/01 00:43:51;;;;;;;7.97;6.28;;;;;;;18.11;100.00;99789.53;5289946;28;20218;-72
2023/08/01 00:46:23;;;;;;;8.48;5.70;;;;;;;18.07;100.00;99790.94;5281823;28;20609;-72
2023/08/01 00:48:57;;;;;;;7.70;6.20;;;;;;;18.03;100.00;99790.53;5292552;28;20070;-72
2023/08/01 00:51:31;;;;;;;9.00;6.50;;;;;;;17.93;100.00;99785.66;5283081;28;20665;-72
2023/08/01 00:54:02;;;;;;;9.25;6.50;;;;;;;17.93;100.00;99790.97;5285764;28;20036;-72
2023/08/01 00:56:35;;;;;;;6.90;6.18;;;;;;;17.89;100.00;99799.53;5285355;28;20022;-72
2023/08/01 00:59:06;;;;;;;10.50;6.18;;;;;;;17.86;100.00;99805.22;5270743;28;20054;-72
2023/08/01 01:01:37;;;;;;;8.17;6.10;;;;;;;17.77;100.00;99790.53;5279148;28;20028;-72
2023/08/01 01:04:09;;;;;;;9.63;5.95;;;;;;;17.79;100.00;99791.16;5282734;28;20031;-72
2023/08/01 01:06:47;;;;;;;8.63;5.47;;;;;;;17.90;100.00;99793.19;5286574;28;20024;-73
2023/08/01 01:09:20;;;;;;;6.75;5.35;;;;;;;17.61;100.00;99773.16;5289314;28;20024;-72
2023/08/01 01:11:51;;;;;;;8.30;5.68;;;;;;;17.65;100.00;99785.84;5281690;28;20025;-72
2023/08/01 01:14:22;;;;;;;9.38;5.88;;;;;;;17.71;100.00;99782.34;5287946;28;20035;-73
2023/08/01 01:16:54;;;;;;;6.40;5.20;;;;;;;17.67;100.00;99783.78;5282783;28;20363;-72
2023/08/01 01:19:25;;;;;;;7.65;5.47;;;;;;;17.62;100.00;99786.22;5285916;28;20063;-72
2023/08/01 01:21:57;;;;;;;9.10;5.72;;;;;;;17.58;100.00;99787.66;5281827;28;20089;-72
2023/08/01 01:24:29;;;;;;;13.43;5.75;;;;;;;17.48;100.00;99789.88;5286275;28;20086;-73
2023/08/01 01:27:03;;;;;;;8.05;5.57;;;;;;;17.46;100.00;99783.94;5282947;28;20024;-72
2023/08/01 01:29:34;;;;;;;11.32;5.32;;;;;;;17.39;100.00;99785.78;5285815;28;20485;-72
2023/08/01 01:32:06;;;;;;;7.75;5.22;;;;;;;17.41;100.00;99789.03;5280571;28;20036;-72
2023/08/01 01:34:37;;;;;;;8.90;5.63;;;;;;;17.37;100.00;99795.75;5284065;28;20103;-72
2023/08/01 01:37:09;;;;;;;8.32;5.63;;;;;;;17.37;100.00;99785.16;5288352;28;20429;-72
2023/08/01 01:39:40;;;;;;;8.18;5.70;;;;;;;17.39;100.00;99778.66;5288453;28;20051;-72
2023/08/01 01:42:13;;;;;;;8.43;5.75;;;;;;;17.33;100.00;99779.44;5287577;28;20024;-72
2023/08/01 01:44:44;;;;;;;9.65;5.40;;;;;;;17.33;100.00;99787.38;5284173;28;20016;-73
2023/08/01 01:47:15;;;;;;;9.18;5.93;;;;;;;17.36;100.00;99778.22;5280542;28;20023;-73
2023/08/01 01:49:46;;;;;;;9.70;6.10;;;;;;;17.26;100.00;99770.66;5285518;28;20027;-72
2023/08/01 01:52:18;;;;;;;10.90;5.65;;;;;;;17.29;100.00;99767.63;5287357;28;20134;-72
2023/08/01 01:54:49;;;;;;;9.63;5.68;;;;;;;17.27;100.00;99778.44;5266953;28;20017;-72
2023/08/01 01:57:20;;;;;;;10.35;6.03;;;;;;;17.26;100.00;99775.97;5280376;28;20025;-72
2023/08/01 01:59:51;;;;;;;10.07;5.72;;;;;;;17.19;100.00;99777.78;5282878;28;20277;-71
2023/08/01 02:02:23;;;;;;;8.57;6.35;;;;;;;17.18;100.00;99776.94;5280275;28;20520;-72
2023/08/01 02:04:54;;;;;;;11.68;6.40;;;;;;;17.05;100.00;99766.34;5283286;28;21193;-72
2023/08/01 02:07:25;;;;;;;10.27;7.20;;;;;;;17.12;100.00;99775.13;5276666;28;20764;-72
2023/08/01 02:09:56;;;;;;;10.02;7.07;;;;;;;17.08;100.00;99770.41;5284317;28;20482;-72
2023/08/01 02:12:31;;;;;;;11.27;7.18;;;;;;;17.06;100.00;99773.25;5290828;28;20481;-72
2023/08/01 02:15:02;;;;;;;13.40;7.50;;;;;;;17.00;100.00;99774.03;5283392;28;20023;-72
2023/08/01 02:17:34;;;;;;;11.10;7.65;;;;;;;16.98;100.00;99778.72;5287027;28;20027;-73
2023/08/01 02:20:06;;;;;;;15.55;7.95;;;;;;;16.97;100.00;99779.72;5279374;28;20082;-72
2023/08/01 02:22:37;;;;;;;15.35;8.88;;;;;;;16.87;100.00;99761.59;5281016;28;20024;-72
2023/08/01 02:25:08;;;;;;;13.60;10.10;;;;;;;16.97;100.00;99774.44;5287928;28;20020;-72
2023/08/01 02:27:40;;;;;;;11.30;8.85;;;;;;;16.91;100.00;99767.31;5281872;28;20027;-72
2023/08/01 02:30:11;;;;;;;11.80;9.25;;;;;;;16.95;100.00;99773.81;5280288;28;20035;-71
2023/08/01 02:32:42;;;;;;;12.15;10.30;;;;;;;16.99;100.00;99775.06;5288932;28;20045;-72
2023/08/01 02:35:13;;;;;;;15.20;10.90;;;;;;;16.99;100.00;99775.88;5279914;28;20071;-71
2023/08/01 02:37:45;;;;;;;13.00;10.43;;;;;;;17.07;100.00;99785.47;5289774;28;20547;-71
2023/08/01 02:40:16;;;;;;;13.30;10.43;;;;;;;17.04;100.00;99780.56;5278478;28;20044;-72
2023/08/01 02:42:47;;;;;;;18.15;10.27;;;;;;;17.09;100.00;99782.63;5285067;28;20133;-71
2023/08/01 02:45:19;;;;;;;14.90;10.77;;;;;;;17.08;100.00;99784.44;5289525;28;20101;-72
2023/08/01 02:47:50;;;;;;;17.02;11.10;;;;;;;17.09;100.00;99774.69;5279847;28;20027;-71
2023/08/01 02:50:21;;;;;;;13.73;11.25;;;;;;;17.08;100.00;99795.03;5279891;28;20546;-71
2023/08/01 02:52:53;;;;;;;17.27;12.45;;;;;;;17.08;100.00;99787.09;5286983;28;20495;-72
2023/08/01 02:55:25;;;;;;;14.07;10.60;;;;;;;17.12;100.00;99795.44;5284111;28;20539;-72
2023/08/01 02:57:56;;;;;;;15.98;11.68;;;;;;;17.13;100.00;99792.63;5283811;28;20085;-72
2023/08/01 03:00:27;;;;;;;14.85;12.13;;;;;;;17.12;100.00;99790.16;5288601;28;20031;-72
2023/08/01 03:02:59;;;;;;;16.15;11.45;;;;;;;17.09;100.00;99791.38;5283672;28;20035;-72
2023/08/01 03:05:30;;;;;;;16.55;11.88;;;;;;;17.00;100.00;99776.69;5278613;28;20127;-72
2023/08/01 03:08:02;;;;;;;21.65;13.70;;;;;;;17.12;100.00;99782.22;5278889;28;20032;-73
2023/08/01 03:10:33;;;;;;;19.48;13.65;;;;;;;17.10;100.00;99784.25;5281804;28;20354;-72
2023/08/01 03:13:04;;;;;;;18.88;13.40;;;;;;;17.10;100.00;99784.25;5266279;28;20075;-71
2023/08/01 03:15:36;;;;;;;20.35;13.65;;;;;;;17.02;100.00;99786.06;5277668;28;20024;-72
2023/08/01 03:18:08;;;;;;;19.02;13.88;;;;;;;17.05;100.00;99782.22;5289712;28;20104;-71
2023/08/01 03:20:39;;;;;;;19.48;14.48;;;;;;;17.07;100.00;99789.94;5284730;28;20473;-71
2023/08/01 03:23:11;;;;;;;17.83;15.48;;;;;;;17.03;100.00;99784.22;5288253;28;20020;-71
2023/08/01 03:25:42;;;;;;;21.52;14.85;;;;;;;17.06;100.00;99783.84;5285709;28;20477;-72
2023/08/01 03:28:14;;;;;;;21.15;15.85;;;;;;;16.99;100.00;99783.00;5285692;28;20371;-72
2023/08/01 03:30:45;;;;;;;25.42;15.85;;;;;;;17.06;100.00;99797.06;5280442;28;20487;-73
2023/08/01 03:33:16;;;;;;;20.98;16.10;;;;;;;16.99;100.00;99785.66;5285492;28;20051;-73
2023/08/01 03:35:47;;;;;;;20.75;15.48;;;;;;;16.99;100.00;99786.47;5281018;28;20038;-73
2023/08/01 03:38:19;;;;;;;19.80;15.85;;;;;;;16.97;100.00;99777.91;5288130;28;20028;-73
2023/08/01 03:40:50;;;;;;;21.30;17.25;;;;;;;17.05;100.00;99781.38;5279292;28;20466;-73
2023/08/01 03:43:23;;;;;;;23.05;18.42;;;;;;;17.07;100.00;99793.41;5279225;28;20081;-73
2023/08/01 03:45:54;;;;;;;;;;;;;;;17.77;100.00;99801.13;5287271;28;20070;-72
2023/08/01 03:48:26;;;;;;;18.00;16.10;;;;;;;17.06;100.00;99788.31;5282399;28;19966;-73
2023/08/01 03:50:57;;;;;;;21.42;17.10;;;;;;;17.10;100.00;99795.66;5281597;28;20039;-73
2023/08/01 03:53:28;;;;;;;21.77;18.10;;;;;;;17.05;100.00;99792.81;5287181;28;20032;-72
2023/08/01 03:56:00;;;;;;;22.83;17.67;;;;;;;17.07;100.00;99797.88;5278313;28;20039;-72
2023/08/01 03:58:31;;;;;;;21.50;18.20;;;;;;;17.09;100.00;99796.69;5287463;28;20051;-73
2023/08/01 04:01:02;;;;;;;28.52;19.45;;;;;;;17.06;100.00;99797.06;5282296;28;20026;-73
2023/08/01 04:03:33;;;;;;;26.20;18.83;;;;;;;17.11;100.00;99801.78;5288346;28;20024;-72
2023/08/01 04:06:05;;;;;;;24.50;18.75;;;;;;;17.05;100.00;99792.81;5281362;28;20028;-73
2023/08/01 04:08:36;;;;;;;20.63;18.48;;;;;;;17.08;100.00;99783.63;5287010;28;20020;-72
2023/08/01 04:11:07;;;;;;;23.88;18.73;;;;;;;17.10;100.00;99789.56;5282672;28;20398;-73
2023/08/01 04:13:38;;;;;;;23.70;18.60;;;;;;;17.02;100.00;99790.53;5277494;28;20025;-73
2023/08/01 04:16:10;;;;;;;23.20;18.50;;;;;;;17.08;100.00;99794.22;5284029;28;20094;-73
2023/08/01 04:18:41;;;;;;;24.70;17.77;;;;;;;17.07;100.00;99798.69;5275833;28;20074;-73
2023/08/01 04:21:14;;;;;;;23.23;18.15;;;;;;;17.07;100.00;99798.69;5282883;28;20056;-73
2023/08/01 04:23:45;;;;;;;;;;;;;;;17.78;100.00;99797.47;5288487;28;20036;-72
2023/08/01 04:26:16;;;;;;;24.57;18.37;;;;;;;17.15;100.00;99792.41;5282479;28;19912;-73
2023/08/01 04:28:48;;;;;;;24.50;18.17;;;;;;;17.09;100.00;99786.09;5284137;28;20234;-73
2023/08/01 04:31:19;;;;;;;23.95;17.67;;;;;;;17.05;100.00;99790.16;5286385;28;20031;-72
2023/08/01 04:33:50;;;;;;;23.38;18.15;;;;;;;16.99;100.00;99781.16;5279362;28;20028;-73
2023/08/01 04:36:22;;;;;;;22.02;17.23;;;;;;;17.14;100.00;99798.72;5279428;28;20020;-73
2023/08/01 04:38:53;;;;;;;25.50;18.05;;;;;;;17.09;100.00;99786.09;5283533;28;20032;-73
2023/08/01 04:41:24;;;;;;;19.83;16.77;;;;;;;17.15;100.00;99795.88;5281672;28;20123;-73
2023/08/01 04:43:55;;;;;;;23.33;17.50;;;;;;;17.18;100.00;99800.78;5280566;28;20036;-73
2023/08/01 04:46:27;;;;;;;22.65;18.05;;;;;;;17.19;100.00;99799.75;5285664;28;20028;-73
2023/08/01 04:48:58;;;;;;;19.92;17.80;;;;;;;17.21;100.00;99804.88;5276841;28;20043;-73
2023/08/01 04:51:30;;;;;;;22.58;17.10;;;;;;;17.21;100.00;99807.50;5290299;28;20077;-73
2023/08/01 04:54:01;;;;;;;25.55;16.75;;;;;;;17.21;100.00;99815.44;5282693;28;20119;-73
2023/08/01 04:56:32;;;;;;;24.33;17.45;;;;;;;17.24;100.00;99823.81;5278747;28;20441;-73
2023/08/01 04:59:04;;;;;;;21.20;16.63;;;;;;;17.23;100.00;99816.88;5286372;28;20804;-72
2023/08/01 05:01:35;;;;;;;20.60;16.75;;;;;;;17.24;100.00;99818.53;5291301;28;20577;-71
2023/08/01 05:04:06;;;;;;;19.08;17.02;;;;;;;17.24;100.00;99817.72;5280950;28;20497;-73
2023/08/01 05:06:37;;;;;;;19.88;17.40;;;;;;;17.22;100.00;99814.44;5291220;28;20415;-72
2023/08/01 05:09:09;;;;;;;31.40;17.15;;;;;;;17.22;100.00;99806.50;5285207;28;20028;-72
2023/08/01 05:11:40;;;;;;;25.65;16.92;;;;;;;17.21;100.00;99815.44;5281814;28;20103;-72
2023/08/01 05:14:11;;;;;;;22.08;16.45;;;;;;;17.22;100.00;99823.19;5282257;28;20081;-73
2023/08/01 05:16:42;;;;;;;22.83;16.73;;;;;;;17.21;100.00;99820.75;5278840;28;20027;-72
2023/08/01 05:19:14;;;;;;;20.95;15.38;;;;;;;17.20;100.00;99812.00;5283574;28;20023;-72
2023/08/01 05:21:46;;;;;;;21.88;16.05;;;;;;;17.19;100.00;99812.16;5285594;28;20024;-73
2023/08/01 05:24:17;;;;;;;21.13;16.15;;;;;;;17.21;100.00;99810.97;5287955;28;20050;-73
2023/08/01 05:26:49;;;;;;;18.92;15.05;;;;;;;17.22;100.00;99814.44;5286881;28;20032;-73
2023/08/01 05:29:20;;;;;;;19.85;14.60;;;;;;;17.23;100.00;99824.81;5284133;28;20024;-71
2023/08/01 05:31:51;;;;;;;20.95;15.68;;;;;;;17.23;100.00;99816.88;5287128;28;20501;-71
2023/08/01 05:34:22;;;;;;;21.73;14.80;;;;;;;17.21;100.00;99818.09;5282634;28;20024;-72
2023/08/01 05:36:54;;;;;;;18.58;15.13;;;;;;;17.27;100.00;99818.13;5286296;28;20020;-71
2023/08/01 05:39:25;;;;;;;22.48;14.57;;;;;;;17.34;100.00;99819.97;5287702;28;20090;-72
2023/08/01 05:41:56;;;;;;;18.85;13.85;;;;;;;17.38;100.00;99824.66;5279971;28;20032;-72
2023/08/01 05:44:27;;;;;;;18.33;14.73;;;;;;;17.43;100.00;99826.72;5281613;28;20024;-72
2023/08/01 05:46:59;;;;;;;16.73;14.30;;;;;;;17.49;100.00;99828.56;5286110;28;20059;-72
2023/08/01 05:49:30;;;;;;;22.85;14.90;;;;;;;17.45;100.00;99822.03;5282991;28;20028;-72
2023/08/01 05:52:01;;;;;;;20.73;15.15;;;;;;;17.50;100.00;99825.72;5282554;28;20389;-72
2023/08/01 05:54:33;;;;;;;19.42;13.57;;;;;;;17.54;100.00;99834.09;5283199;28;20024;-72
2023/08/01 05:57:05;;;;;;;22.73;14.65;;;;;;;17.47;100.00;99834.06;5280775;28;20032;-73
2023/08/01 05:59:36;;;;;;;17.65;14.43;;;;;;;17.50;100.00;99838.97;5284138;28;20464;-72
2023/08/01 06:02:08;;;;;;;18.38;13.88;;;;;;;17.61;100.00;99839.38;5281719;28;20111;-72
2023/08/01 06:04:39;;;;;;;18.40;14.40;;;;;;;17.65;100.00;99846.75;5289078;28;20024;-72
2023/08/01 06:07:10;;;;;;;18.15;13.00;;;;;;;17.71;100.00;99848.56;5280560;28;20032;-72
2023/08/01 06:09:41;;;;;;;16.80;14.00;;;;;;;17.85;100.00;99840.69;5276670;28;20024;-73
2023/08/01 06:12:13;;;;;;;17.42;13.52;;;;;;;17.92;100.00;99850.28;5285568;28;20025;-72
2023/08/01 06:14:45;;;;;;;17.27;12.63;;;;;;;17.92;100.00;99838.88;5285436;28;20027;-72
2023/08/01 06:17:16;;;;;;;16.05;12.85;;;;;;;18.10;100.00;99856.81;5281463;28;20117;-72
2023/08/01 06:19:47;;;;;;;21.27;13.63;;;;;;;18.08;100.00;99853.56;5264267;28;20050;-73
2023/08/01 06:22:19;;;;;;;15.52;12.23;;;;;;;18.05;100.00;99846.00;5279428;28;20062;-73
2023/08/01 06:24:50;;;;;;;21.15;12.68;;;;;;;18.02;100.00;99849.88;5281790;28;20041;-73
2023/08/01 06:27:21;;;;;;;16.10;11.57;;;;;;;18.03;100.00;99850.69;5283892;28;20024;-73
2023/08/01 06:29:52;;;;;;;16.77;12.57;;;;;;;17.96;100.00;99854.16;5276365;28;20314;-72
2023/08/01 06:32:24;;;;;;;19.27;13.48;;;;;;;18.12;100.00;99855.59;5270870;28;20031;-72
2023/08/01 06:34:55;;;;;;;16.25;13.77;;;;;;;18.09;100.00;99845.41;5276545;28;20447;-73
2023/08/01 06:37:26;;;;;;;19.23;13.95;;;;;;;18.18;100.00;99852.13;5281905;28;20472;-72
2023/08/01 06:39:58;;;;;;;15.23;13.33;;;;;;;18.26;100.00;99860.88;5273451;28;20572;-72
2023/08/01 06:42:29;;;;;;;15.88;12.15;;;;;;;18.26;100.00;99856.41;5273219;28;20012;-72
2023/08/01 06:45:01;;;;;;;16.60;13.45;;;;;;;18.28;100.00;99853.56;5278783;28;20044;-72
2023/08/01 06:47:32;;;;;;;17.77;13.15;;;;;;;18.38;100.00;99846.00;5279623;28;20512;-72
2023/08/01 06:50:04;;;;;;;16.05;12.13;;;;;;;18.47;100.00;99848.22;5279643;28;20105;-72
2023/08/01 06:52:36;;;;;;;15.38;12.55;;;;;;;18.58;100.00;99852.09;5282510;28;20032;-73
2023/08/01 06:55:07;;;;;;;17.70;11.85;;;;;;;18.64;100.00;99863.75;5281721;28;20024;-73
2023/08/01 06:57:39;;;;;;;15.77;11.23;;;;;;;18.60;100.00;99865.97;5272579;28;20504;-72
2023/08/01 07:00:12;;;;;;;14.35;10.00;;;;;;;18.53;100.00;99878.44;5277210;28;20071;-72
2023/08/01 07:02:43;;;;;;;13.60;9.88;;;;;;;18.52;100.00;99871.47;5276843;28;20032;-72
2023/08/01 07:05:14;;;;;;;18.90;10.07;;;;;;;18.51;100.00;99874.34;5277875;28;20493;-72
2023/08/01 07:07:46;;;;;;;15.15;10.43;;;;;;;18.58;100.00;99865.38;5276269;28;20500;-73
2023/08/01 07:10:17;;;;;;;15.10;9.73;;;;;;;18.70;100.00;99878.81;5275786;28;20017;-72
2023/08/01 07:12:48;;;;;;;11.20;9.35;;;;;;;18.80;100.00;99875.78;5255325;28;20033;-73
2023/08/01 07:15:20;;;;;;;11.90;8.73;;;;;;;18.81;100.00;99874.75;5277617;28;20035;-73
2023/08/01 07:17:51;;;;;;;15.13;9.20;;;;;;;18.80;100.00;99886.38;5276968;28;20031;-72
2023/08/01 07:20:22;;;;;;;10.77;7.78;;;;;;;18.85;100.00;99875.97;5274106;28;20530;-72
2023/08/01 07:22:54;;;;;;;13.13;8.37;;;;;;;18.88;100.00;99867.59;5274193;28;20347;-72
2023/08/01 07:25:25;;;;;;;13.20;7.33;;;;;;;19.06;100.00;99866.94;5273475;28;20034;-73
2023/08/01 07:27:57;;;;;;;10.48;6.38;;;;;;;19.08;100.00;99870.97;5277876;28;20029;-73
2023/08/01 07:30:29;;;;;;;12.03;7.00;;;;;;;19.00;100.00;99873.88;5278450;28;20027;-73
2023/08/01 07:33:00;;;;;;;12.75;7.25;;;;;;;19.04;100.00;99876.94;5276023;28;20035;-73
2023/08/01 07:35:31;;;;;;;11.37;6.60;;;;;;;19.06;100.00;99885.50;5280599;28;20700;-73
2023/08/01 07:38:02;;;;;;;10.43;6.50;;;;;;;19.05;100.00;99874.06;5257559;28;20036;-74
2023/08/01 07:40:36;;;;;;;14.13;7.20;;;;;;;19.33;100.00;99888.88;5273587;28;20064;-75
2023/08/01 07:43:07;;;;;;;13.38;6.45;;;;;;;19.28;100.00;99880.72;5276873;28;20393;-72
2023/08/01 07:45:38;;;;;;;11.13;5.57;;;;;;;19.24;100.00;99876.84;5277431;28;20033;-73
2023/08/01 07:48:10;;;;;;;9.67;5.67;;;;;;;19.15;100.00;99882.41;5279414;28;20032;-73
2023/08/01 07:50:41;;;;;;;9.80;5.03;;;;;;;19.34;100.00;99896.63;5275116;28;20032;-73
2023/08/01 07:53:12;;;;;;;8.10;4.87;;;;;;;19.48;100.00;99891.28;5272710;28;20029;-73
2023/08/01 07:55:43;;;;;;;9.03;4.50;;;;;;;19.56;100.00;99899.81;5299401;22;21004;-70
2023/08/01 07:58:16;;;;;;;8.43;4.23;;;;;;;19.68;100.00;99887.50;5263016;28;20555;-70
2023/08/01 08:00:48;;;;;;;;;;;;;;;20.42;100.00;99903.78;5268839;28;20107;-70
2023/08/01 08:03:22;;;;;;;6.30;3.70;;;;;;;19.75;100.00;99887.47;5252322;28;20388;-72
2023/08/01 08:05:53;;;;;;;7.75;4.18;;;;;;;19.49;100.00;99892.91;5267565;28;20475;-71
2023/08/01 08:08:24;;;;;;;7.53;3.78;;;;;;;19.60;100.00;99895.69;5255495;28;20028;-69
2023/08/01 08:10:55;;;;;;;6.95;3.97;;;;;;;19.51;100.00;99894.31;5255985;28;20036;-71
2023/08/01 08:13:27;;;;;;;6.43;3.60;;;;;;;19.59;100.00;99904.72;5255753;28;20499;-69
2023/08/01 08:15:59;;;;;;;9.63;4.70;;;;;;;19.68;100.00;99903.44;5257577;28;20370;-69
2023/08/01 08:18:30;;;;;;;7.70;4.55;;;;;;;19.69;100.00;99883.81;5253699;28;20024;-71
2023/08/01 08:21:01;;;;;;;7.53;4.17;;;;;;;19.93;100.00;99897.41;5252117;28;20563;-69
2023/08/01 08:23:32;;;;;;;6.43;3.97;;;;;;;20.18;100.00;99892.91;5256904;28;20477;-69
2023/08/01 08:26:04;;;;;;;8.43;4.80;;;;;;;20.13;100.00;99899.91;5260659;28;20457;-69
2023/08/01 08:28:36;;;;;;;7.70;4.43;;;;;;;20.03;100.00;99897.72;5261539;28;20319;-70
2023/08/01 08:31:08;;;;;;;9.23;4.43;;;;;;;20.36;100.00;99907.31;5259284;28;20158;-70
2023/08/01 08:33:39;;;;;;;7.03;4.50;;;;;;;20.40;100.00;99919.16;5264906;28;20024;-72
2023/08/01 08:36:10;;;;;;;7.57;4.43;;;;;;;20.39;100.00;99910.34;5260742;28;20041;-70
2023/08/01 08:38:41;;;;;;;9.77;4.47;;;;;;;20.45;100.00;99900.66;5262242;28;20032;-69
2023/08/01 08:41:37;;;;;;;7.90;4.70;;;;;;;20.63;100.00;99905.25;5245471;28;20428;-69
2023/08/01 08:44:10;;;;;;;9.23;3.63;;;;;;;20.11;100.00;99915.25;5261255;28;20033;-71
2023/08/01 08:46:43;;;;;;;;;;;;;;;20.70;100.00;99915.84;5263289;28;20028;-70
2023/08/01 08:49:15;;;;;;;8.60;4.47;;;;;;;19.72;100.00;99925.09;5259504;28;19917;-69
2023/08/01 08:51:48;;;;;;;6.43;3.95;;;;;;;19.61;100.00;99923.09;5266800;28;20123;-69
2023/08/01 08:54:20;;;;;;;4.82;3.85;;;;;;;19.43;100.00;99923.75;5260540;28;20064;-69
2023/08/01 08:56:51;;;;;;;8.33;3.83;;;;;;;19.27;100.00;99934.88;5262180;28;20080;-70
2023/08/01 08:59:23;;;;;;;9.53;3.33;;;;;;;19.15;100.00;99934.69;5263098;28;20025;-69
2023/08/01 09:01:55;;;;;;;8.30;3.53;;;;;;;19.15;100.00;99938.16;5264320;28;20566;-69
2023/08/01 09:04:27;;;;;;;6.57;2.83;;;;;;;19.23;100.00;99936.31;5265057;28;20114;-69
2023/08/01 09:07:02;;;;;;;6.60;2.90;;;;;;;19.29;100.00;99930.16;5260626;28;20043;-69
2023/08/01 09:09:34;;;;;;;4.82;2.38;;;;;;;19.24;100.00;99930.78;5259647;28;20714;-70
2023/08/01 09:12:07;;;;;;;5.63;2.55;;;;;;;19.28;100.00;99939.97;5264081;28;20159;-69
2023/08/01 09:14:39;;;;;;;6.10;2.50;;;;;;;19.37;100.00;99943.22;5259744;28;20211;-69
2023/08/01 09:17:10;;;;;;;5.25;2.17;;;;;;;19.29;100.00;99940.78;5264539;28;20057;-70
2023/08/01 09:19:41;;;;;;;5.23;2.80;;;;;;;19.34;100.00;99944.44;5263272;28;20029;-69
2023/08/01 09:22:13;;;;;;;6.33;2.80;;;;;;;19.25;100.00;99956.31;5263879;28;20556;-69
2023/08/01 09:24:54;;;;;;;6.97;3.15;;;;;;;19.36;100.00;99952.22;5262374;28;20060;-68
2023/08/01 09:27:33;;;;;;;7.10;3.15;;;;;;;19.17;100.00;99952.06;5266128;28;20473;-69
2023/08/01 09:30:07;;;;;;;8.23;3.00;;;;;;;19.00;100.00;99963.31;5259213;28;20086;-69
2023/08/01 09:32:39;;;;;;;6.45;3.25;;;;;;;18.75;100.00;99963.94;5263312;28;20029;-70
2023/08/01 09:35:10;;;;;;;5.15;2.53;;;;;;;18.65;100.00;99964.34;5263358;28;20036;-70
2023/08/01 09:37:42;;;;;;;3.67;1.42;;;;;;;18.57;100.00;99967.19;5262320;28;20116;-69
2023/08/01 09:40:14;;;;;;;6.33;2.70;;;;;;;18.32;100.00;99947.59;5260912;28;20082;-69
2023/08/01 09:42:46;;;;;;;6.00;1.83;;;;;;;18.30;100.00;99961.06;5262974;28;20272;-69
2023/08/01 09:45:18;;;;;;;4.68;1.70;;;;;;;18.26;100.00;99962.47;5260987;28;20024;-70
2023/08/01 09:47:49;;;;;;;3.93;1.80;;;;;;;18.20;100.00;99952.66;5257353;28;20036;-70
2023/08/01 09:50:22;;;;;;;7.40;2.08;;;;;;;18.30;100.00;99962.91;5257794;28;20295;-69
2023/08/01 09:52:53;;;;;;;4.05;1.73;;;;;;;18.36;100.00;99960.22;5257107;28;21010;-71
2023/08/01 09:55:31;;;;;;;8.48;2.72;;;;;;;18.60;100.00;99969.44;5256452;28;20033;-70
2023/08/01 09:58:04;;;;;;;5.20;2.30;;;;;;;18.60;100.00;99963.28;5261517;28;20037;-69
2023/08/01 10:00:36;;;;;;;6.63;2.17;;;;;;;18.67;100.00;99962.28;5257698;28;20029;-71
2023/08/01 10:03:07;;;;;;;6.15;2.22;;;;;;;19.16;100.00;99963.69;5258479;28;20047;-69
2023/08/01 10:05:41;;;;;;;9.80;3.27;;;;;;;19.23;100.00;99958.38;5253631;28;20029;-69
2023/08/01 10:08:13;;;;;;;5.40;2.75;;;;;;;19.45;100.00;99965.03;5258926;28;20032;-70
2023/08/01 10:10:44;;;;;;;5.27;2.90;;;;;;;19.88;100.00;99955.69;5256191;28;20079;-69
2023/08/01 10:13:17;;;;;;;7.23;2.90;;;;;;;20.12;100.00;99968.25;5259791;28;20412;-70
2023/08/01 10:15:49;;;;;;;6.40;3.00;;;;;;;20.24;100.00;99959.59;5254981;28;20402;-70
2023/08/01 10:18:21;;;;;;;6.07;3.45;;;;;;;20.57;100.00;99964.66;5262335;28;20064;-70
2023/08/01 10:20:53;;;;;;;6.90;3.43;;;;;;;20.68;100.00;99960.50;5259569;28;20111;-70
2023/08/01 10:23:25;;;;;;;9.40;3.10;;;;;;;20.68;100.00;99965.81;5257806;28;20016;-71
2023/08/01 10:25:58;;;;;;;9.02;3.58;;;;;;;20.51;100.00;99961.03;5256388;28;20039;-69
2023/08/01 10:28:51;;;;;;;7.40;3.58;;;;;;;20.42;100.00;99960.47;5245663;28;20028;-69
2023/08/01 10:31:23;;;;;;;7.35;2.97;;;;;;;20.32;100.00;99967.28;5257779;28;20111;-70
2023/08/01 10:34:13;;;;;;;6.13;3.33;;;;;;;20.39;100.00;99971.53;5255568;28;20074;-69
2023/08/01 10:36:57;;;;;;;7.97;3.05;;;;;;;20.41;100.00;99976.63;5248733;28;20474;-70
2023/08/01 10:39:28;;;;;;;7.30;3.20;;;;;;;20.20;100.00;99972.50;5253597;28;20038;-72
2023/08/01 10:42:02;;;;;;;9.90;3.23;;;;;;;20.18;100.00;99980.66;5252445;28;20033;-71
2023/08/01 10:44:35;;;;;;;6.20;2.50;;;;;;;20.05;100.00;99972.78;5255851;28;20120;-70
2023/08/01 10:47:06;;;;;;;10.57;3.33;;;;;;;20.04;100.00;99984.44;5256032;28;20055;-69
2023/08/01 10:49:44;;;;;;;7.53;2.83;;;;;;;20.09;100.00;99973.16;5258050;28;20025;-71
2023/08/01 10:52:19;;;;;;;7.78;2.38;;;;;;;19.91;100.00;99976.53;5254749;28;20423;-70
2023/08/01 10:55:04;;;;;;;8.60;2.90;;;;;;;20.09;100.00;99989.13;5259427;28;20040;-70
2023/08/01 10:57:38;;;;;;;9.93;2.97;;;;;;;19.92;100.00;99986.13;5252711;28;20048;-70
2023/08/01 11:00:10;;;;;;;10.07;3.13;;;;;;;20.12;100.00;100000.16;5258942;28;20470;-71
2023/08/01 11:02:41;;;;;;;7.97;2.77;;;;;;;20.10;100.00;99993.41;5259334;28;20028;-69
2023/08/01 11:05:12;;;;;;;11.07;3.33;;;;;;;20.11;100.00;100005.66;5260241;28;20037;-71
2023/08/01 11:07:57;;;;;;;9.10;3.13;;;;;;;20.10;100.00;100004.84;5256859;28;20029;-70
2023/08/01 11:10:30;;;;;;;5.32;2.42;;;;;;;19.93;100.00;100006.41;5258801;28;20123;-72
2023/08/01 11:13:02;;;;;;;7.50;2.97;;;;;;;19.78;100.00;100008.50;5245396;28;20031;-69
2023/08/01 11:15:37;;;;;;;5.17;2.60;;;;;;;19.87;100.00;100008.03;5249129;28;20041;-69
2023/08/01 11:18:09;;;;;;;7.20;2.95;;;;;;;19.63;100.00;100006.09;5257973;28;20383;-70
2023/08/01 11:20:41;;;;;;;6.20;2.23;;;;;;;19.59;100.00;100008.34;5255066;28;20405;-69
2023/08/01 11:23:12;;;;;;;6.67;2.40;;;;;;;19.52;100.00;100007.53;5238755;28;20025;-70
2023/08/01 11:25:45;;;;;;;9.33;2.83;;;;;;;19.62;100.00;100007.09;5238372;28;20032;-71
2023/08/01 11:28:17;;;;;;;;;;;;;;;20.41;100.00;100011.22;5239699;28;20020;-70
2023/08/01 11:30:48;;;;;;;6.35;2.47;;;;;;;19.80;100.00;100020.53;5252188;28;20762;-71
2023/08/01 11:33:21;;;;;;;10.37;3.10;;;;;;;19.69;100.00;100015.88;5242288;28;20056;-70
2023/08/01 11:35:56;;;;;;;8.55;3.30;;;;;;;19.64;100.00;100021.00;5252117;28;20401;-69
2023/08/01 11:38:29;;;;;;;7.32;2.53;;;;;;;19.61;100.00;100029.38;5255373;28;20114;-69
2023/08/01 11:41:03;;;;;;;6.40;2.67;;;;;;;19.66;100.00;100030.41;5255655;28;20489;-69